Rasheeda — V7QH2 — position and weather

sailwx.info

Track history (hours):
 
Tides and Currents Weather Stations Pressure Air Temp Water Temp Dewpoint Dewpoint Depression Visibility Wind Speed Wind Dir Waves Ship Positions

Rasheeda

Last reported at 2018-Jul-07 02:35 UTC. Time now 2018-Jul-21 13:45 UTC.
Position N 01°26' E 103°10'.
Warning: this ship's position is 14 days out of date.

Length 345 m; draft 9.6 m.

Type: Ship (hazmat cat C). MMSI: 538003362.

Date/timePositionNaut miles runAvg speedWind from/ knotsBaromVisibWave heightAir tempDewpointWater temp
2018-Jul-07 02:35N 01°26' E 103°10'316.4
2018-Jul-07 02:25N 01°24' E 103°12'716.4
2018-Jul-07 02:00N 01°20' E 103°17'816.0
2018-Jul-07 01:30N 01°15' E 103°24'816.2
2018-Jul-07 01:00N 01°12' E 103°31'613.0
2018-Jul-07 00:30N 01°11' E 103°38'2 3.8
2018-Jul-07 00:00N 01°11' E 103°39'2 3.3
2018-Jul-06 23:30N 01°10' E 103°41'4 7.0
2018-Jul-06 23:00N 01°08' E 103°44'714.1
2018-Jul-06 22:30N 01°11' E 103°50'714.0
2018-Jul-06 22:00N 01°14' E 103°56'815.2
2018-Jul-06 21:30N 01°16' E 104°04'816.1
2018-Jul-06 20:59N 01°17' E 104°12'816.2
2018-Jul-06 20:28N 01°19' E 104°20'916.0
2018-Jul-06 19:56N 01°25' E 104°26'  
2018-Jun-29 20:55N 38°11' E 122°15'819.3
2018-Jun-29 20:30N 38°13' E 122°05'919.0
2018-Jun-29 20:01N 38°15' E 121°53'1019.1
2018-Jun-29 19:30N 38°17' E 121°41'1018.9
2018-Jun-29 18:59N 38°20' E 121°29'919.2
2018-Jun-29 18:30N 38°22' E 121°17'1318.5
2018-Jun-29 17:48N 38°28' E 121°03'5618.5
2018-Jun-29 14:46N 38°45' E 119°54'518.8
2018-Jun-29 14:29N 38°45' E 119°48'1019.1
2018-Jun-29 13:56N 38°46' E 119°34'6 0.2
2018-Jun-27 21:00N 38°50' E 119°27'713.7
2018-Jun-27 20:28N 38°49' E 119°36'613.5
2018-Jun-27 20:00N 38°48' E 119°44'713.5
2018-Jun-27 19:28N 38°48' E 119°54'813.6
2018-Jun-27 18:54N 38°47' E 120°04'513.6
2018-Jun-27 18:30N 38°46' E 120°10'1113.5
2018-Jun-27 17:41N 38°43' E 120°24'  
Track history (hours):
 
Tides and Currents Weather Stations Pressure Air Temp Water Temp Dewpoint Dewpoint Depression Visibility Wind Speed Wind Dir Waves Ship Positions

Rasheeda

Last reported at 2018-Jul-07 02:35 UTC. Time now 2018-Jul-21 13:45 UTC.
Position N 01°26' E 103°10'.
Warning: this ship's position is 14 days out of date.

Length 345 m; draft 9.6 m.

Type: Ship (hazmat cat C). MMSI: 538003362.

Date/timePositionNaut miles runAvg speedWind from/ knotsBaromVisibWave heightAir tempDewpointWater temp
2018-Jul-07 02:35N 01°26' E 103°10'316.4
2018-Jul-07 02:25N 01°24' E 103°12'716.4
2018-Jul-07 02:00N 01°20' E 103°17'816.0
2018-Jul-07 01:30N 01°15' E 103°24'816.2
2018-Jul-07 01:00N 01°12' E 103°31'613.0
2018-Jul-07 00:30N 01°11' E 103°38'2 3.8
2018-Jul-07 00:00N 01°11' E 103°39'2 3.3
2018-Jul-06 23:30N 01°10' E 103°41'4 7.0
2018-Jul-06 23:00N 01°08' E 103°44'714.1
2018-Jul-06 22:30N 01°11' E 103°50'714.0
2018-Jul-06 22:00N 01°14' E 103°56'815.2
2018-Jul-06 21:30N 01°16' E 104°04'816.1
2018-Jul-06 20:59N 01°17' E 104°12'816.2
2018-Jul-06 20:28N 01°19' E 104°20'916.0
2018-Jul-06 19:56N 01°25' E 104°26'  
2018-Jun-29 20:55N 38°11' E 122°15'819.3
2018-Jun-29 20:30N 38°13' E 122°05'919.0
2018-Jun-29 20:01N 38°15' E 121°53'1019.1
2018-Jun-29 19:30N 38°17' E 121°41'1018.9
2018-Jun-29 18:59N 38°20' E 121°29'919.2
2018-Jun-29 18:30N 38°22' E 121°17'1318.5
2018-Jun-29 17:48N 38°28' E 121°03'5618.5
2018-Jun-29 14:46N 38°45' E 119°54'518.8
2018-Jun-29 14:29N 38°45' E 119°48'1019.1
2018-Jun-29 13:56N 38°46' E 119°34'6 0.2
2018-Jun-27 21:00N 38°50' E 119°27'713.7
2018-Jun-27 20:28N 38°49' E 119°36'613.5
2018-Jun-27 20:00N 38°48' E 119°44'713.5
2018-Jun-27 19:28N 38°48' E 119°54'813.6
2018-Jun-27 18:54N 38°47' E 120°04'513.6
2018-Jun-27 18:30N 38°46' E 120°10'1113.5
2018-Jun-27 17:41N 38°43' E 120°24'  

Dump ship's entire track history